sensor_id;sensor_type;location;lat;lon;timestamp;P1;durP1;ratioP1;P2;durP2;ratioP2
19189;SDS011;9727;50.200;19.038;2023-02-02T00:00:51;2.43;;;1.40;;
19189;SDS011;9727;50.200;19.038;2023-02-02T00:03:19;2.83;;;1.57;;
19189;SDS011;9727;50.200;19.038;2023-02-02T00:05:46;2.80;;;1.70;;
19189;SDS011;9727;50.200;19.038;2023-02-02T00:11:16;4.90;;;2.00;;
19189;SDS011;9727;50.200;19.038;2023-02-02T00:13:44;4.03;;;2.43;;
19189;SDS011;9727;50.200;19.038;2023-02-02T00:19:00;6.13;;;3.70;;
19189;SDS011;9727;50.200;19.038;2023-02-02T00:21:27;7.23;;;3.57;;
19189;SDS011;9727;50.200;19.038;2023-02-02T00:23:54;6.80;;;4.57;;
19189;SDS011;9727;50.200;19.038;2023-02-02T00:26:22;6.03;;;3.97;;
19189;SDS011;9727;50.200;19.038;2023-02-02T00:28:49;7.23;;;4.70;;
19189;SDS011;9727;50.200;19.038;2023-02-02T00:31:15;7.67;;;4.87;;
19189;SDS011;9727;50.200;19.038;2023-02-02T00:33:43;8.57;;;4.60;;
19189;SDS011;9727;50.200;19.038;2023-02-02T00:36:11;7.23;;;4.90;;
19189;SDS011;9727;50.200;19.038;2023-02-02T00:38:39;6.67;;;5.03;;
19189;SDS011;9727;50.200;19.038;2023-02-02T00:41:05;9.07;;;5.53;;
19189;SDS011;9727;50.200;19.038;2023-02-02T00:43:32;9.43;;;5.70;;
19189;SDS011;9727;50.200;19.038;2023-02-02T00:45:59;7.10;;;5.47;;
19189;SDS011;9727;50.200;19.038;2023-02-02T00:48:24;9.97;;;6.33;;
19189;SDS011;9727;50.200;19.038;2023-02-02T00:50:51;8.73;;;6.53;;
19189;SDS011;9727;50.200;19.038;2023-02-02T00:53:19;10.87;;;6.87;;
19189;SDS011;9727;50.200;19.038;2023-02-02T00:55:48;10.40;;;6.87;;
19189;SDS011;9727;50.200;19.038;2023-02-02T00:58:15;9.90;;;6.67;;
19189;SDS011;9727;50.200;19.038;2023-02-02T01:00:41;9.23;;;7.07;;
19189;SDS011;9727;50.200;19.038;2023-02-02T01:03:08;9.97;;;6.87;;
19189;SDS011;9727;50.200;19.038;2023-02-02T01:05:37;9.57;;;7.23;;
19189;SDS011;9727;50.200;19.038;2023-02-02T01:08:03;8.70;;;6.83;;
19189;SDS011;9727;50.200;19.038;2023-02-02T01:10:32;10.13;;;7.07;;
19189;SDS011;9727;50.200;19.038;2023-02-02T01:12:58;12.10;;;7.20;;
19189;SDS011;9727;50.200;19.038;2023-02-02T01:15:25;10.63;;;6.63;;
19189;SDS011;9727;50.200;19.038;2023-02-02T01:17:52;9.90;;;6.33;;
19189;SDS011;9727;50.200;19.038;2023-02-02T01:20:19;8.47;;;6.30;;
19189;SDS011;9727;50.200;19.038;2023-02-02T01:22:46;8.37;;;6.63;;
19189;SDS011;9727;50.200;19.038;2023-02-02T01:25:15;9.47;;;6.00;;
19189;SDS011;9727;50.200;19.038;2023-02-02T01:27:44;9.57;;;6.77;;
19189;SDS011;9727;50.200;19.038;2023-02-02T01:30:11;12.00;;;7.60;;
19189;SDS011;9727;50.200;19.038;2023-02-02T01:32:41;8.77;;;6.63;;
19189;SDS011;9727;50.200;19.038;2023-02-02T01:35:07;11.37;;;7.23;;
19189;SDS011;9727;50.200;19.038;2023-02-02T01:37:35;11.57;;;8.33;;
19189;SDS011;9727;50.200;19.038;2023-02-02T01:40:01;13.70;;;8.07;;
19189;SDS011;9727;50.200;19.038;2023-02-02T01:42:28;14.37;;;8.47;;
19189;SDS011;9727;50.200;19.038;2023-02-02T01:45:13;13.03;;;8.33;;
19189;SDS011;9727;50.200;19.038;2023-02-02T01:47:42;13.03;;;8.30;;
19189;SDS011;9727;50.200;19.038;2023-02-02T01:50:16;13.20;;;8.83;;
19189;SDS011;9727;50.200;19.038;2023-02-02T01:52:44;15.03;;;8.90;;
19189;SDS011;9727;50.200;19.038;2023-02-02T01:55:13;17.10;;;9.10;;
19189;SDS011;9727;50.200;19.038;2023-02-02T01:57:41;16.50;;;8.77;;
19189;SDS011;9727;50.200;19.038;2023-02-02T02:00:11;13.10;;;8.53;;
19189;SDS011;9727;50.200;19.038;2023-02-02T02:02:40;14.40;;;8.83;;
19189;SDS011;9727;50.200;19.038;2023-02-02T02:05:07;15.93;;;8.53;;
19189;SDS011;9727;50.200;19.038;2023-02-02T02:07:34;11.30;;;7.53;;
19189;SDS011;9727;50.200;19.038;2023-02-02T02:10:01;12.90;;;7.73;;
19189;SDS011;9727;50.200;19.038;2023-02-02T02:12:28;10.87;;;7.33;;
19189;SDS011;9727;50.200;19.038;2023-02-02T02:14:54;16.13;;;6.90;;
19189;SDS011;9727;50.200;19.038;2023-02-02T02:17:45;12.57;;;6.17;;
19189;SDS011;9727;50.200;19.038;2023-02-02T02:20:31;13.90;;;6.70;;
19189;SDS011;9727;50.200;19.038;2023-02-02T02:23:33;12.10;;;6.60;;
19189;SDS011;9727;50.200;19.038;2023-02-02T02:26:27;13.37;;;7.27;;
19189;SDS011;9727;50.200;19.038;2023-02-02T02:29:17;18.47;;;8.30;;
19189;SDS011;9727;50.200;19.038;2023-02-02T02:32:00;13.50;;;6.83;;
19189;SDS011;9727;50.200;19.038;2023-02-02T02:34:32;11.70;;;7.40;;
19189;SDS011;9727;50.200;19.038;2023-02-02T02:37:03;15.33;;;6.70;;
19189;SDS011;9727;50.200;19.038;2023-02-02T02:39:33;11.23;;;6.27;;
19189;SDS011;9727;50.200;19.038;2023-02-02T02:42:03;9.90;;;5.97;;
19189;SDS011;9727;50.200;19.038;2023-02-02T02:44:31;10.47;;;5.90;;
19189;SDS011;9727;50.200;19.038;2023-02-02T02:46:58;9.67;;;5.53;;
19189;SDS011;9727;50.200;19.038;2023-02-02T02:49:26;11.13;;;4.87;;
19189;SDS011;9727;50.200;19.038;2023-02-02T02:51:53;9.47;;;4.30;;
19189;SDS011;9727;50.200;19.038;2023-02-02T02:54:21;9.23;;;4.57;;
19189;SDS011;9727;50.200;19.038;2023-02-02T02:59:37;6.53;;;3.73;;
19189;SDS011;9727;50.200;19.038;2023-02-02T03:02:15;7.90;;;3.87;;
19189;SDS011;9727;50.200;19.038;2023-02-02T03:04:48;6.97;;;3.60;;
19189;SDS011;9727;50.200;19.038;2023-02-02T03:07:17;7.30;;;4.00;;
19189;SDS011;9727;50.200;19.038;2023-02-02T03:09:47;7.53;;;3.50;;
19189;SDS011;9727;50.200;19.038;2023-02-02T03:12:14;10.43;;;3.73;;
19189;SDS011;9727;50.200;19.038;2023-02-02T03:14:41;8.80;;;4.00;;
19189;SDS011;9727;50.200;19.038;2023-02-02T03:17:07;10.97;;;3.60;;
19189;SDS011;9727;50.200;19.038;2023-02-02T03:19:34;8.37;;;3.67;;
19189;SDS011;9727;50.200;19.038;2023-02-02T03:22:02;5.70;;;3.50;;
19189;SDS011;9727;50.200;19.038;2023-02-02T03:24:29;11.33;;;3.60;;
19189;SDS011;9727;50.200;19.038;2023-02-02T03:26:55;8.73;;;4.07;;
19189;SDS011;9727;50.200;19.038;2023-02-02T03:29:25;8.93;;;3.50;;
19189;SDS011;9727;50.200;19.038;2023-02-02T03:31:52;10.47;;;3.63;;
19189;SDS011;9727;50.200;19.038;2023-02-02T03:34:18;9.20;;;3.90;;
19189;SDS011;9727;50.200;19.038;2023-02-02T03:36:45;7.77;;;3.63;;
19189;SDS011;9727;50.200;19.038;2023-02-02T03:39:15;11.90;;;3.40;;
19189;SDS011;9727;50.200;19.038;2023-02-02T03:41:42;12.03;;;3.50;;
19189;SDS011;9727;50.200;19.038;2023-02-02T03:44:08;10.00;;;3.30;;
19189;SDS011;9727;50.200;19.038;2023-02-02T03:46:35;9.30;;;3.00;;
19189;SDS011;9727;50.200;19.038;2023-02-02T03:49:01;11.80;;;2.73;;
19189;SDS011;9727;50.200;19.038;2023-02-02T03:51:28;12.57;;;3.30;;
19189;SDS011;9727;50.200;19.038;2023-02-02T03:53:54;7.10;;;2.47;;
19189;SDS011;9727;50.200;19.038;2023-02-02T03:56:23;8.57;;;2.53;;
19189;SDS011;9727;50.200;19.038;2023-02-02T03:58:50;11.60;;;2.83;;
19189;SDS011;9727;50.200;19.038;2023-02-02T04:01:16;5.57;;;2.40;;
19189;SDS011;9727;50.200;19.038;2023-02-02T04:03:43;14.00;;;2.73;;
19189;SDS011;9727;50.200;19.038;2023-02-02T04:06:10;9.57;;;2.53;;
19189;SDS011;9727;50.200;19.038;2023-02-02T04:08:37;6.93;;;2.40;;
19189;SDS011;9727;50.200;19.038;2023-02-02T04:11:08;11.20;;;3.00;;
19189;SDS011;9727;50.200;19.038;2023-02-02T04:13:37;8.60;;;2.53;;
19189;SDS011;9727;50.200;19.038;2023-02-02T04:16:04;12.30;;;3.43;;
19189;SDS011;9727;50.200;19.038;2023-02-02T04:18:31;9.93;;;2.70;;
19189;SDS011;9727;50.200;19.038;2023-02-02T04:20:57;7.67;;;2.60;;
19189;SDS011;9727;50.200;19.038;2023-02-02T04:23:24;7.00;;;2.73;;
19189;SDS011;9727;50.200;19.038;2023-02-02T04:25:51;9.00;;;2.60;;
19189;SDS011;9727;50.200;19.038;2023-02-02T04:28:18;11.00;;;2.97;;
19189;SDS011;9727;50.200;19.038;2023-02-02T04:30:46;9.10;;;3.43;;
19189;SDS011;9727;50.200;19.038;2023-02-02T04:33:15;16.70;;;3.10;;
19189;SDS011;9727;50.200;19.038;2023-02-02T04:35:42;12.20;;;3.10;;
19189;SDS011;9727;50.200;19.038;2023-02-02T04:38:09;7.93;;;2.83;;
19189;SDS011;9727;50.200;19.038;2023-02-02T04:40:37;11.30;;;3.37;;
19189;SDS011;9727;50.200;19.038;2023-02-02T04:43:03;8.33;;;2.87;;
19189;SDS011;9727;50.200;19.038;2023-02-02T04:45:30;8.57;;;3.00;;
19189;SDS011;9727;50.200;19.038;2023-02-02T04:47:58;12.70;;;3.00;;
19189;SDS011;9727;50.200;19.038;2023-02-02T04:50:24;9.77;;;3.33;;
19189;SDS011;9727;50.200;19.038;2023-02-02T04:52:51;14.60;;;3.60;;
19189;SDS011;9727;50.200;19.038;2023-02-02T04:55:17;13.17;;;4.00;;
19189;SDS011;9727;50.200;19.038;2023-02-02T04:57:44;21.90;;;4.73;;
19189;SDS011;9727;50.200;19.038;2023-02-02T05:00:11;11.20;;;4.07;;
19189;SDS011;9727;50.200;19.038;2023-02-02T05:02:38;15.90;;;4.83;;
19189;SDS011;9727;50.200;19.038;2023-02-02T05:05:08;11.40;;;4.07;;
19189;SDS011;9727;50.200;19.038;2023-02-02T05:07:34;14.33;;;4.27;;
19189;SDS011;9727;50.200;19.038;2023-02-02T05:10:01;11.67;;;3.80;;
19189;SDS011;9727;50.200;19.038;2023-02-02T05:12:28;9.83;;;3.83;;
19189;SDS011;9727;50.200;19.038;2023-02-02T05:14:54;11.80;;;4.07;;
19189;SDS011;9727;50.200;19.038;2023-02-02T05:17:22;13.43;;;4.17;;
19189;SDS011;9727;50.200;19.038;2023-02-02T05:19:48;11.80;;;4.40;;
19189;SDS011;9727;50.200;19.038;2023-02-02T05:22:16;16.37;;;4.77;;
19189;SDS011;9727;50.200;19.038;2023-02-02T05:24:43;13.90;;;4.60;;
19189;SDS011;9727;50.200;19.038;2023-02-02T05:27:09;9.13;;;3.97;;
19189;SDS011;9727;50.200;19.038;2023-02-02T05:29:36;17.63;;;4.20;;
19189;SDS011;9727;50.200;19.038;2023-02-02T05:32:02;11.90;;;4.10;;
19189;SDS011;9727;50.200;19.038;2023-02-02T05:34:29;8.67;;;4.10;;
19189;SDS011;9727;50.200;19.038;2023-02-02T05:36:55;11.23;;;3.70;;
19189;SDS011;9727;50.200;19.038;2023-02-02T05:39:23;11.37;;;4.03;;
19189;SDS011;9727;50.200;19.038;2023-02-02T05:41:50;10.87;;;3.20;;
19189;SDS011;9727;50.200;19.038;2023-02-02T05:44:17;16.00;;;3.10;;
19189;SDS011;9727;50.200;19.038;2023-02-02T05:46:43;10.93;;;3.67;;
19189;SDS011;9727;50.200;19.038;2023-02-02T05:49:10;7.70;;;3.57;;
19189;SDS011;9727;50.200;19.038;2023-02-02T05:51:41;12.00;;;3.73;;
19189;SDS011;9727;50.200;19.038;2023-02-02T05:54:08;9.77;;;3.07;;
19189;SDS011;9727;50.200;19.038;2023-02-02T05:56:37;11.00;;;3.93;;
19189;SDS011;9727;50.200;19.038;2023-02-02T05:59:03;9.77;;;3.73;;
19189;SDS011;9727;50.200;19.038;2023-02-02T06:01:31;11.77;;;3.63;;
19189;SDS011;9727;50.200;19.038;2023-02-02T06:03:58;11.07;;;3.93;;
19189;SDS011;9727;50.200;19.038;2023-02-02T06:06:25;16.73;;;4.93;;
19189;SDS011;9727;50.200;19.038;2023-02-02T06:08:51;16.73;;;6.03;;
19189;SDS011;9727;50.200;19.038;2023-02-02T06:11:18;14.23;;;6.57;;
19189;SDS011;9727;50.200;19.038;2023-02-02T06:13:46;15.13;;;5.77;;
19189;SDS011;9727;50.200;19.038;2023-02-02T06:16:16;12.13;;;6.10;;
19189;SDS011;9727;50.200;19.038;2023-02-02T06:18:42;20.03;;;7.27;;
19189;SDS011;9727;50.200;19.038;2023-02-02T06:21:09;17.77;;;7.73;;
19189;SDS011;9727;50.200;19.038;2023-02-02T06:23:36;15.43;;;8.80;;
19189;SDS011;9727;50.200;19.038;2023-02-02T06:26:03;13.90;;;9.33;;
19189;SDS011;9727;50.200;19.038;2023-02-02T06:28:32;17.20;;;8.83;;
19189;SDS011;9727;50.200;19.038;2023-02-02T06:31:03;14.17;;;8.43;;
19189;SDS011;9727;50.200;19.038;2023-02-02T06:33:30;13.43;;;7.30;;
19189;SDS011;9727;50.200;19.038;2023-02-02T06:35:57;13.60;;;6.73;;
19189;SDS011;9727;50.200;19.038;2023-02-02T06:38:24;10.83;;;5.40;;
19189;SDS011;9727;50.200;19.038;2023-02-02T06:40:50;15.00;;;5.37;;
19189;SDS011;9727;50.200;19.038;2023-02-02T06:43:17;10.37;;;4.90;;
19189;SDS011;9727;50.200;19.038;2023-02-02T06:45:43;11.63;;;4.90;;
19189;SDS011;9727;50.200;19.038;2023-02-02T06:48:11;13.27;;;5.17;;
19189;SDS011;9727;50.200;19.038;2023-02-02T06:50:40;12.17;;;5.27;;
19189;SDS011;9727;50.200;19.038;2023-02-02T06:53:07;12.77;;;5.20;;
19189;SDS011;9727;50.200;19.038;2023-02-02T06:55:33;13.83;;;5.27;;
19189;SDS011;9727;50.200;19.038;2023-02-02T06:58:00;12.67;;;5.20;;
19189;SDS011;9727;50.200;19.038;2023-02-02T07:00:27;10.23;;;5.57;;
19189;SDS011;9727;50.200;19.038;2023-02-02T07:02:54;8.87;;;5.30;;
19189;SDS011;9727;50.200;19.038;2023-02-02T07:05:23;14.73;;;5.80;;
19189;SDS011;9727;50.200;19.038;2023-02-02T07:07:50;11.97;;;4.97;;
19189;SDS011;9727;50.200;19.038;2023-02-02T07:10:16;11.57;;;5.03;;
19189;SDS011;9727;50.200;19.038;2023-02-02T07:12:44;11.83;;;5.50;;
19189;SDS011;9727;50.200;19.038;2023-02-02T07:15:10;12.87;;;5.40;;
19189;SDS011;9727;50.200;19.038;2023-02-02T07:17:38;10.63;;;4.87;;
19189;SDS011;9727;50.200;19.038;2023-02-02T07:20:05;15.10;;;5.20;;
19189;SDS011;9727;50.200;19.038;2023-02-02T07:22:33;12.23;;;5.07;;
19189;SDS011;9727;50.200;19.038;2023-02-02T07:25:00;15.77;;;6.47;;
19189;SDS011;9727;50.200;19.038;2023-02-02T07:27:27;14.07;;;5.00;;
19189;SDS011;9727;50.200;19.038;2023-02-02T07:29:54;13.63;;;6.60;;
19189;SDS011;9727;50.200;19.038;2023-02-02T07:32:20;18.30;;;8.17;;
19189;SDS011;9727;50.200;19.038;2023-02-02T07:34:56;11.67;;;6.53;;
19189;SDS011;9727;50.200;19.038;2023-02-02T07:37:23;12.50;;;5.67;;
19189;SDS011;9727;50.200;19.038;2023-02-02T07:39:51;13.77;;;6.23;;
19189;SDS011;9727;50.200;19.038;2023-02-02T07:42:17;12.37;;;5.50;;
19189;SDS011;9727;50.200;19.038;2023-02-02T07:44:44;12.63;;;5.60;;
19189;SDS011;9727;50.200;19.038;2023-02-02T07:47:10;10.43;;;4.93;;
19189;SDS011;9727;50.200;19.038;2023-02-02T07:49:38;11.93;;;5.17;;
19189;SDS011;9727;50.200;19.038;2023-02-02T07:52:05;13.13;;;5.53;;
19189;SDS011;9727;50.200;19.038;2023-02-02T07:54:32;10.00;;;4.77;;
19189;SDS011;9727;50.200;19.038;2023-02-02T07:57:00;10.67;;;5.20;;
19189;SDS011;9727;50.200;19.038;2023-02-02T07:59:27;13.13;;;5.57;;
19189;SDS011;9727;50.200;19.038;2023-02-02T08:01:53;11.63;;;5.53;;
19189;SDS011;9727;50.200;19.038;2023-02-02T08:04:20;11.63;;;5.07;;
19189;SDS011;9727;50.200;19.038;2023-02-02T08:06:47;11.57;;;5.13;;
19189;SDS011;9727;50.200;19.038;2023-02-02T08:09:17;10.87;;;5.10;;
19189;SDS011;9727;50.200;19.038;2023-02-02T08:11:44;15.27;;;5.77;;
19189;SDS011;9727;50.200;19.038;2023-02-02T08:14:17;11.80;;;5.30;;
19189;SDS011;9727;50.200;19.038;2023-02-02T08:16:43;14.83;;;6.50;;
19189;SDS011;9727;50.200;19.038;2023-02-02T08:19:10;15.77;;;6.37;;
19189;SDS011;9727;50.200;19.038;2023-02-02T08:21:37;11.67;;;5.77;;
19189;SDS011;9727;50.200;19.038;2023-02-02T08:24:03;16.57;;;6.87;;
19189;SDS011;9727;50.200;19.038;2023-02-02T08:26:30;17.63;;;6.27;;
19189;SDS011;9727;50.200;19.038;2023-02-02T08:28:58;12.30;;;5.73;;
19189;SDS011;9727;50.200;19.038;2023-02-02T08:31:26;13.20;;;6.70;;
19189;SDS011;9727;50.200;19.038;2023-02-02T08:33:53;14.67;;;6.03;;
19189;SDS011;9727;50.200;19.038;2023-02-02T08:36:23;18.87;;;6.30;;
19189;SDS011;9727;50.200;19.038;2023-02-02T08:38:50;17.97;;;6.73;;
19189;SDS011;9727;50.200;19.038;2023-02-02T08:41:17;18.77;;;6.90;;
19189;SDS011;9727;50.200;19.038;2023-02-02T08:43:45;16.70;;;7.10;;
19189;SDS011;9727;50.200;19.038;2023-02-02T08:46:12;20.47;;;7.60;;
19189;SDS011;9727;50.200;19.038;2023-02-02T08:48:41;20.93;;;7.60;;
19189;SDS011;9727;50.200;19.038;2023-02-02T08:51:08;16.43;;;7.13;;
19189;SDS011;9727;50.200;19.038;2023-02-02T08:53:35;15.97;;;8.00;;
19189;SDS011;9727;50.200;19.038;2023-02-02T08:56:03;14.30;;;8.07;;
19189;SDS011;9727;50.200;19.038;2023-02-02T08:58:31;21.33;;;8.67;;
19189;SDS011;9727;50.200;19.038;2023-02-02T09:01:09;17.17;;;7.63;;
19189;SDS011;9727;50.200;19.038;2023-02-02T09:03:36;17.53;;;6.73;;
19189;SDS011;9727;50.200;19.038;2023-02-02T09:06:08;12.53;;;5.50;;
19189;SDS011;9727;50.200;19.038;2023-02-02T09:08:35;12.87;;;5.33;;
19189;SDS011;9727;50.200;19.038;2023-02-02T09:11:03;15.37;;;5.10;;
19189;SDS011;9727;50.200;19.038;2023-02-02T09:13:30;9.20;;;3.60;;
19189;SDS011;9727;50.200;19.038;2023-02-02T09:16:00;9.37;;;3.77;;
19189;SDS011;9727;50.200;19.038;2023-02-02T09:18:27;6.97;;;3.17;;
19189;SDS011;9727;50.200;19.038;2023-02-02T09:20:54;7.63;;;2.93;;
19189;SDS011;9727;50.200;19.038;2023-02-02T09:23:22;8.07;;;3.43;;
19189;SDS011;9727;50.200;19.038;2023-02-02T09:25:50;7.47;;;3.13;;
19189;SDS011;9727;50.200;19.038;2023-02-02T09:28:16;7.40;;;3.27;;
19189;SDS011;9727;50.200;19.038;2023-02-02T09:30:43;6.03;;;3.53;;
19189;SDS011;9727;50.200;19.038;2023-02-02T09:33:09;6.93;;;3.50;;
19189;SDS011;9727;50.200;19.038;2023-02-02T09:35:36;6.50;;;3.70;;
19189;SDS011;9727;50.200;19.038;2023-02-02T09:38:03;4.73;;;3.47;;
19189;SDS011;9727;50.200;19.038;2023-02-02T09:40:31;7.13;;;3.33;;
19189;SDS011;9727;50.200;19.038;2023-02-02T09:43:04;6.10;;;2.87;;
19189;SDS011;9727;50.200;19.038;2023-02-02T09:45:34;6.90;;;3.43;;
19189;SDS011;9727;50.200;19.038;2023-02-02T09:48:05;8.30;;;3.47;;
19189;SDS011;9727;50.200;19.038;2023-02-02T09:50:42;4.90;;;2.83;;
19189;SDS011;9727;50.200;19.038;2023-02-02T09:53:19;8.07;;;3.10;;
19189;SDS011;9727;50.200;19.038;2023-02-02T09:55:50;9.40;;;3.57;;
19189;SDS011;9727;50.200;19.038;2023-02-02T09:58:18;7.30;;;3.70;;
19189;SDS011;9727;50.200;19.038;2023-02-02T10:00:47;9.30;;;3.80;;
19189;SDS011;9727;50.200;19.038;2023-02-02T10:03:17;6.93;;;3.50;;
19189;SDS011;9727;50.200;19.038;2023-02-02T10:05:47;6.13;;;3.80;;
19189;SDS011;9727;50.200;19.038;2023-02-02T10:08:17;12.90;;;4.17;;
19189;SDS011;9727;50.200;19.038;2023-02-02T10:10:50;9.27;;;4.03;;
19189;SDS011;9727;50.200;19.038;2023-02-02T10:13:19;10.73;;;4.20;;
19189;SDS011;9727;50.200;19.038;2023-02-02T10:15:50;11.80;;;5.90;;
19189;SDS011;9727;50.200;19.038;2023-02-02T10:18:20;9.27;;;5.47;;
19189;SDS011;9727;50.200;19.038;2023-02-02T10:20:50;9.23;;;5.43;;
19189;SDS011;9727;50.200;19.038;2023-02-02T10:23:21;13.13;;;5.30;;
19189;SDS011;9727;50.200;19.038;2023-02-02T10:25:53;9.83;;;5.63;;
19189;SDS011;9727;50.200;19.038;2023-02-02T10:28:23;15.07;;;5.87;;
19189;SDS011;9727;50.200;19.038;2023-02-02T10:30:54;12.90;;;6.03;;
19189;SDS011;9727;50.200;19.038;2023-02-02T10:33:26;12.13;;;6.10;;
19189;SDS011;9727;50.200;19.038;2023-02-02T10:35:58;13.73;;;5.83;;
19189;SDS011;9727;50.200;19.038;2023-02-02T10:38:30;12.43;;;6.33;;
19189;SDS011;9727;50.200;19.038;2023-02-02T10:41:04;12.60;;;6.13;;
19189;SDS011;9727;50.200;19.038;2023-02-02T10:43:38;15.03;;;5.73;;
19189;SDS011;9727;50.200;19.038;2023-02-02T10:46:13;11.23;;;4.17;;
19189;SDS011;9727;50.200;19.038;2023-02-02T10:48:40;6.77;;;3.23;;
19189;SDS011;9727;50.200;19.038;2023-02-02T10:51:10;6.57;;;3.03;;
19189;SDS011;9727;50.200;19.038;2023-02-02T10:53:38;7.60;;;3.87;;
19189;SDS011;9727;50.200;19.038;2023-02-02T10:56:07;5.80;;;3.10;;
19189;SDS011;9727;50.200;19.038;2023-02-02T10:58:37;3.63;;;2.50;;
19189;SDS011;9727;50.200;19.038;2023-02-02T11:01:06;5.90;;;3.17;;
19189;SDS011;9727;50.200;19.038;2023-02-02T11:03:35;6.27;;;3.13;;
19189;SDS011;9727;50.200;19.038;2023-02-02T11:06:03;7.60;;;3.07;;
19189;SDS011;9727;50.200;19.038;2023-02-02T11:08:49;9.27;;;3.30;;
19189;SDS011;9727;50.200;19.038;2023-02-02T11:11:25;8.50;;;2.97;;
19189;SDS011;9727;50.200;19.038;2023-02-02T11:13:52;6.67;;;2.83;;
19189;SDS011;9727;50.200;19.038;2023-02-02T11:16:26;8.43;;;3.03;;
19189;SDS011;9727;50.200;19.038;2023-02-02T11:18:53;5.27;;;3.13;;
19189;SDS011;9727;50.200;19.038;2023-02-02T11:21:21;6.57;;;3.10;;
19189;SDS011;9727;50.200;19.038;2023-02-02T11:23:55;7.27;;;2.93;;
19189;SDS011;9727;50.200;19.038;2023-02-02T11:26:24;8.27;;;3.33;;
19189;SDS011;9727;50.200;19.038;2023-02-02T11:28:51;8.37;;;3.13;;
19189;SDS011;9727;50.200;19.038;2023-02-02T11:31:29;8.20;;;3.17;;
19189;SDS011;9727;50.200;19.038;2023-02-02T11:34:07;5.70;;;2.90;;
19189;SDS011;9727;50.200;19.038;2023-02-02T11:36:34;5.73;;;3.10;;
19189;SDS011;9727;50.200;19.038;2023-02-02T11:39:13;7.33;;;3.13;;
19189;SDS011;9727;50.200;19.038;2023-02-02T11:41:41;8.03;;;3.00;;
19189;SDS011;9727;50.200;19.038;2023-02-02T11:44:11;8.07;;;3.53;;
19189;SDS011;9727;50.200;19.038;2023-02-02T11:46:40;8.60;;;3.47;;
19189;SDS011;9727;50.200;19.038;2023-02-02T11:49:11;6.60;;;3.67;;
19189;SDS011;9727;50.200;19.038;2023-02-02T11:51:40;8.40;;;4.10;;
19189;SDS011;9727;50.200;19.038;2023-02-02T11:54:13;6.50;;;3.70;;
19189;SDS011;9727;50.200;19.038;2023-02-02T11:56:44;8.00;;;4.10;;
19189;SDS011;9727;50.200;19.038;2023-02-02T11:59:25;9.20;;;4.40;;
19189;SDS011;9727;50.200;19.038;2023-02-02T12:02:07;8.83;;;4.37;;
19189;SDS011;9727;50.200;19.038;2023-02-02T12:04:35;9.50;;;4.10;;
19189;SDS011;9727;50.200;19.038;2023-02-02T12:07:14;11.13;;;4.17;;
19189;SDS011;9727;50.200;19.038;2023-02-02T12:09:42;9.90;;;3.20;;
19189;SDS011;9727;50.200;19.038;2023-02-02T12:12:14;10.97;;;4.07;;
19189;SDS011;9727;50.200;19.038;2023-02-02T12:14:44;10.93;;;3.70;;
19189;SDS011;9727;50.200;19.038;2023-02-02T12:17:22;11.23;;;3.47;;
19189;SDS011;9727;50.200;19.038;2023-02-02T12:22:57;6.03;;;2.77;;
19189;SDS011;9727;50.200;19.038;2023-02-02T12:25:36;7.40;;;2.80;;
19189;SDS011;9727;50.200;19.038;2023-02-02T12:28:14;7.13;;;2.70;;
19189;SDS011;9727;50.200;19.038;2023-02-02T12:30:45;7.00;;;2.63;;
19189;SDS011;9727;50.200;19.038;2023-02-02T12:33:20;5.67;;;2.60;;
19189;SDS011;9727;50.200;19.038;2023-02-02T12:35:54;8.83;;;2.53;;
19189;SDS011;9727;50.200;19.038;2023-02-02T12:38:28;7.57;;;3.00;;
19189;SDS011;9727;50.200;19.038;2023-02-02T12:41:02;7.43;;;3.00;;
19189;SDS011;9727;50.200;19.038;2023-02-02T12:43:38;6.70;;;3.37;;
19189;SDS011;9727;50.200;19.038;2023-02-02T12:46:15;6.23;;;2.97;;
19189;SDS011;9727;50.200;19.038;2023-02-02T12:48:48;4.77;;;2.80;;
19189;SDS011;9727;50.200;19.038;2023-02-02T12:51:23;8.27;;;3.07;;
19189;SDS011;9727;50.200;19.038;2023-02-02T12:56:34;7.67;;;3.20;;
19189;SDS011;9727;50.200;19.038;2023-02-02T12:59:07;10.87;;;3.47;;
19189;SDS011;9727;50.200;19.038;2023-02-02T13:01:41;7.30;;;2.93;;
19189;SDS011;9727;50.200;19.038;2023-02-02T13:09:59;6.87;;;3.13;;
19189;SDS011;9727;50.200;19.038;2023-02-02T13:12:27;8.60;;;3.20;;
19189;SDS011;9727;50.200;19.038;2023-02-02T13:14:59;6.73;;;3.63;;
19189;SDS011;9727;50.200;19.038;2023-02-02T13:17:28;10.17;;;4.10;;
19189;SDS011;9727;50.200;19.038;2023-02-02T13:19:56;9.03;;;3.60;;
19189;SDS011;9727;50.200;19.038;2023-02-02T13:22:24;10.40;;;4.40;;
19189;SDS011;9727;50.200;19.038;2023-02-02T13:24:54;10.37;;;3.97;;
19189;SDS011;9727;50.200;19.038;2023-02-02T13:27:22;10.97;;;3.83;;
19189;SDS011;9727;50.200;19.038;2023-02-02T13:29:51;9.17;;;4.23;;
19189;SDS011;9727;50.200;19.038;2023-02-02T13:32:24;8.63;;;3.83;;
19189;SDS011;9727;50.200;19.038;2023-02-02T13:34:53;10.23;;;3.37;;
19189;SDS011;9727;50.200;19.038;2023-02-02T13:37:24;7.30;;;3.33;;
19189;SDS011;9727;50.200;19.038;2023-02-02T13:39:55;8.70;;;3.63;;
19189;SDS011;9727;50.200;19.038;2023-02-02T13:42:24;8.70;;;3.60;;
19189;SDS011;9727;50.200;19.038;2023-02-02T13:44:56;8.07;;;3.97;;
19189;SDS011;9727;50.200;19.038;2023-02-02T13:47:35;11.33;;;3.73;;
19189;SDS011;9727;50.200;19.038;2023-02-02T13:50:04;11.90;;;4.67;;
19189;SDS011;9727;50.200;19.038;2023-02-02T13:52:39;10.07;;;4.00;;
19189;SDS011;9727;50.200;19.038;2023-02-02T13:55:22;12.10;;;3.63;;
19189;SDS011;9727;50.200;19.038;2023-02-02T14:00:34;10.90;;;4.63;;
19189;SDS011;9727;50.200;19.038;2023-02-02T14:03:02;9.27;;;4.03;;
19189;SDS011;9727;50.200;19.038;2023-02-02T14:05:30;8.57;;;3.20;;
19189;SDS011;9727;50.200;19.038;2023-02-02T14:07:59;7.90;;;3.33;;
19189;SDS011;9727;50.200;19.038;2023-02-02T14:10:34;9.27;;;3.37;;
19189;SDS011;9727;50.200;19.038;2023-02-02T14:16:04;10.17;;;3.10;;
19189;SDS011;9727;50.200;19.038;2023-02-02T14:21:26;7.90;;;2.80;;
19189;SDS011;9727;50.200;19.038;2023-02-02T14:26:55;7.30;;;2.77;;
19189;SDS011;9727;50.200;19.038;2023-02-02T14:29:36;7.77;;;2.87;;
19189;SDS011;9727;50.200;19.038;2023-02-02T14:32:29;8.60;;;2.97;;
19189;SDS011;9727;50.200;19.038;2023-02-02T14:34:58;10.03;;;3.50;;
19189;SDS011;9727;50.200;19.038;2023-02-02T14:37:42;9.53;;;3.27;;
19189;SDS011;9727;50.200;19.038;2023-02-02T14:40:18;7.57;;;3.10;;
19189;SDS011;9727;50.200;19.038;2023-02-02T14:42:50;10.47;;;3.30;;
19189;SDS011;9727;50.200;19.038;2023-02-02T14:45:36;5.53;;;2.83;;
19189;SDS011;9727;50.200;19.038;2023-02-02T14:48:07;9.57;;;3.60;;
19189;SDS011;9727;50.200;19.038;2023-02-02T14:50:43;8.23;;;2.93;;
19189;SDS011;9727;50.200;19.038;2023-02-02T14:53:20;8.67;;;2.40;;
19189;SDS011;9727;50.200;19.038;2023-02-02T14:55:51;5.90;;;2.93;;
19189;SDS011;9727;50.200;19.038;2023-02-02T14:58:22;7.47;;;2.20;;
19189;SDS011;9727;50.200;19.038;2023-02-02T15:00:54;8.13;;;2.73;;
19189;SDS011;9727;50.200;19.038;2023-02-02T15:03:31;8.03;;;2.60;;
19189;SDS011;9727;50.200;19.038;2023-02-02T15:06:02;5.60;;;2.30;;
19189;SDS011;9727;50.200;19.038;2023-02-02T15:08:33;8.03;;;2.20;;
19189;SDS011;9727;50.200;19.038;2023-02-02T15:11:04;5.87;;;2.03;;
19189;SDS011;9727;50.200;19.038;2023-02-02T15:13:44;3.57;;;2.07;;
19189;SDS011;9727;50.200;19.038;2023-02-02T15:16:18;4.93;;;2.10;;
19189;SDS011;9727;50.200;19.038;2023-02-02T15:18:51;5.20;;;2.07;;
19189;SDS011;9727;50.200;19.038;2023-02-02T15:21:22;5.40;;;2.17;;
19189;SDS011;9727;50.200;19.038;2023-02-02T15:23:50;5.97;;;1.97;;
19189;SDS011;9727;50.200;19.038;2023-02-02T15:26:18;6.03;;;2.13;;